Jiuquan, China
Current Conditions -  °F | °C
As of 7:00 AM on Thursday 27 Nov 2014 (Local Time) from ZLLL Reporting Station
Light Snow Light Snow  
Wind Chill: 21°   Ceiling: 3300
Heat Index: 27°   Visibility: 0.68mi
Dew Point: 25°   Wind: 4mph
Humidity: 93%   Direction: 10°N
Pressure: 30.06"   Gusts: NA
Location:  39.75°N, 98.51°E
Report Text: ZLLL 262300Z 01002MPS 1100 R36/2000N -SN SCT006OVC033M03/M04 Q1018 BECMG TL2340 0700 SN
Loading
Personal Weather Stations






























Interactive Weather Map New forecast layout! Learn more

10-Day Weather Forecast

Advertisements
Track Severe Weather on mobile